sensor_id;sensor_type;location;lat;lon;timestamp;P1;durP1;ratioP1;P2;durP2;ratioP2
84877;SDS011;75140;47.754;8.840;2024-01-07T00:00:05;3.40;;;2.75;;
84877;SDS011;75140;47.754;8.840;2024-01-07T00:02:31;4.80;;;2.92;;
84877;SDS011;75140;47.754;8.840;2024-01-07T00:04:56;5.87;;;3.80;;
84877;SDS011;75140;47.754;8.840;2024-01-07T00:07:22;4.53;;;3.38;;
84877;SDS011;75140;47.754;8.840;2024-01-07T00:09:48;7.55;;;4.22;;
84877;SDS011;75140;47.754;8.840;2024-01-07T00:12:13;4.33;;;3.47;;
84877;SDS011;75140;47.754;8.840;2024-01-07T00:14:39;7.43;;;4.07;;
84877;SDS011;75140;47.754;8.840;2024-01-07T00:17:04;4.73;;;3.27;;
84877;SDS011;75140;47.754;8.840;2024-01-07T00:19:29;5.25;;;2.92;;
84877;SDS011;75140;47.754;8.840;2024-01-07T00:22:00;5.20;;;4.43;;
84877;SDS011;75140;47.754;8.840;2024-01-07T00:24:25;4.25;;;3.20;;
84877;SDS011;75140;47.754;8.840;2024-01-07T00:26:53;4.55;;;3.88;;
84877;SDS011;75140;47.754;8.840;2024-01-07T00:29:18;4.07;;;3.30;;
84877;SDS011;75140;47.754;8.840;2024-01-07T00:31:43;4.67;;;3.53;;
84877;SDS011;75140;47.754;8.840;2024-01-07T00:34:09;7.00;;;3.83;;
84877;SDS011;75140;47.754;8.840;2024-01-07T00:36:34;4.63;;;3.50;;
84877;SDS011;75140;47.754;8.840;2024-01-07T00:38:59;5.27;;;3.57;;
84877;SDS011;75140;47.754;8.840;2024-01-07T00:41:25;6.57;;;4.23;;
84877;SDS011;75140;47.754;8.840;2024-01-07T00:43:50;5.22;;;4.68;;
84877;SDS011;75140;47.754;8.840;2024-01-07T00:46:16;5.38;;;3.92;;
84877;SDS011;75140;47.754;8.840;2024-01-07T00:48:41;5.73;;;4.33;;
84877;SDS011;75140;47.754;8.840;2024-01-07T00:51:06;6.17;;;4.00;;
84877;SDS011;75140;47.754;8.840;2024-01-07T00:53:32;4.50;;;3.37;;
84877;SDS011;75140;47.754;8.840;2024-01-07T00:55:57;5.93;;;4.40;;
84877;SDS011;75140;47.754;8.840;2024-01-07T00:58:22;5.67;;;4.17;;
84877;SDS011;75140;47.754;8.840;2024-01-07T01:00:48;5.17;;;3.37;;
84877;SDS011;75140;47.754;8.840;2024-01-07T01:03:13;4.35;;;3.47;;
84877;SDS011;75140;47.754;8.840;2024-01-07T01:05:38;4.70;;;2.70;;
84877;SDS011;75140;47.754;8.840;2024-01-07T01:08:04;6.10;;;3.00;;
84877;SDS011;75140;47.754;8.840;2024-01-07T01:10:30;6.15;;;4.10;;
84877;SDS011;75140;47.754;8.840;2024-01-07T01:12:55;4.32;;;3.65;;
84877;SDS011;75140;47.754;8.840;2024-01-07T01:15:21;5.75;;;3.85;;
84877;SDS011;75140;47.754;8.840;2024-01-07T01:17:46;4.23;;;3.47;;
84877;SDS011;75140;47.754;8.840;2024-01-07T01:20:11;4.43;;;2.90;;
84877;SDS011;75140;47.754;8.840;2024-01-07T01:22:37;4.10;;;2.80;;
84877;SDS011;75140;47.754;8.840;2024-01-07T01:25:02;4.40;;;2.87;;
84877;SDS011;75140;47.754;8.840;2024-01-07T01:27:29;5.95;;;4.10;;
84877;SDS011;75140;47.754;8.840;2024-01-07T01:29:54;3.37;;;2.50;;
84877;SDS011;75140;47.754;8.840;2024-01-07T01:32:19;3.70;;;3.07;;
84877;SDS011;75140;47.754;8.840;2024-01-07T01:34:45;4.30;;;3.57;;
84877;SDS011;75140;47.754;8.840;2024-01-07T01:37:11;7.73;;;4.67;;
84877;SDS011;75140;47.754;8.840;2024-01-07T01:39:39;5.07;;;3.35;;
84877;SDS011;75140;47.754;8.840;2024-01-07T01:42:05;4.80;;;3.28;;
84877;SDS011;75140;47.754;8.840;2024-01-07T01:44:30;4.43;;;2.37;;
84877;SDS011;75140;47.754;8.840;2024-01-07T01:46:56;5.03;;;3.63;;
84877;SDS011;75140;47.754;8.840;2024-01-07T01:49:22;4.28;;;3.22;;
84877;SDS011;75140;47.754;8.840;2024-01-07T01:51:49;5.22;;;3.30;;
84877;SDS011;75140;47.754;8.840;2024-01-07T01:54:15;3.92;;;3.05;;
84877;SDS011;75140;47.754;8.840;2024-01-07T01:56:40;3.83;;;3.23;;
84877;SDS011;75140;47.754;8.840;2024-01-07T01:59:05;4.50;;;3.27;;
84877;SDS011;75140;47.754;8.840;2024-01-07T02:01:31;4.40;;;3.33;;
84877;SDS011;75140;47.754;8.840;2024-01-07T02:03:56;5.03;;;3.50;;
84877;SDS011;75140;47.754;8.840;2024-01-07T02:06:22;5.85;;;3.83;;
84877;SDS011;75140;47.754;8.840;2024-01-07T02:08:48;6.53;;;4.63;;
84877;SDS011;75140;47.754;8.840;2024-01-07T02:11:15;5.55;;;4.22;;
84877;SDS011;75140;47.754;8.840;2024-01-07T02:13:41;7.25;;;5.13;;
84877;SDS011;75140;47.754;8.840;2024-01-07T02:16:06;4.78;;;3.15;;
84877;SDS011;75140;47.754;8.840;2024-01-07T02:18:32;5.43;;;3.92;;
84877;SDS011;75140;47.754;8.840;2024-01-07T02:20:57;5.07;;;3.47;;
84877;SDS011;75140;47.754;8.840;2024-01-07T02:23:22;5.03;;;4.00;;
84877;SDS011;75140;47.754;8.840;2024-01-07T02:25:48;5.97;;;3.90;;
84877;SDS011;75140;47.754;8.840;2024-01-07T02:28:13;6.37;;;3.70;;
84877;SDS011;75140;47.754;8.840;2024-01-07T02:30:38;5.27;;;3.77;;
84877;SDS011;75140;47.754;8.840;2024-01-07T02:33:04;5.28;;;3.67;;
84877;SDS011;75140;47.754;8.840;2024-01-07T02:35:29;8.45;;;4.80;;
84877;SDS011;75140;47.754;8.840;2024-01-07T02:37:55;5.90;;;4.05;;
84877;SDS011;75140;47.754;8.840;2024-01-07T02:40:20;7.70;;;3.80;;
84877;SDS011;75140;47.754;8.840;2024-01-07T02:42:45;7.90;;;4.72;;
84877;SDS011;75140;47.754;8.840;2024-01-07T02:45:11;5.10;;;4.57;;
84877;SDS011;75140;47.754;8.840;2024-01-07T02:47:36;4.40;;;3.53;;
84877;SDS011;75140;47.754;8.840;2024-01-07T02:50:03;5.03;;;4.07;;
84877;SDS011;75140;47.754;8.840;2024-01-07T02:52:28;6.28;;;3.85;;
84877;SDS011;75140;47.754;8.840;2024-01-07T02:54:54;7.50;;;4.87;;
84877;SDS011;75140;47.754;8.840;2024-01-07T02:57:19;6.40;;;4.00;;
84877;SDS011;75140;47.754;8.840;2024-01-07T02:59:44;5.70;;;4.03;;
84877;SDS011;75140;47.754;8.840;2024-01-07T03:02:09;6.10;;;4.03;;
84877;SDS011;75140;47.754;8.840;2024-01-07T03:04:35;5.47;;;4.20;;
84877;SDS011;75140;47.754;8.840;2024-01-07T03:07:00;6.70;;;4.57;;
84877;SDS011;75140;47.754;8.840;2024-01-07T03:09:25;5.10;;;3.80;;
84877;SDS011;75140;47.754;8.840;2024-01-07T03:11:51;6.60;;;3.97;;
84877;SDS011;75140;47.754;8.840;2024-01-07T03:14:16;5.87;;;4.07;;
84877;SDS011;75140;47.754;8.840;2024-01-07T03:16:45;4.38;;;3.42;;
84877;SDS011;75140;47.754;8.840;2024-01-07T03:19:10;5.60;;;4.45;;
84877;SDS011;75140;47.754;8.840;2024-01-07T03:21:36;7.53;;;4.57;;
84877;SDS011;75140;47.754;8.840;2024-01-07T03:24:01;7.80;;;4.78;;
84877;SDS011;75140;47.754;8.840;2024-01-07T03:26:29;6.35;;;4.03;;
84877;SDS011;75140;47.754;8.840;2024-01-07T03:28:55;6.03;;;4.18;;
84877;SDS011;75140;47.754;8.840;2024-01-07T03:31:24;5.85;;;4.07;;
84877;SDS011;75140;47.754;8.840;2024-01-07T03:33:50;5.53;;;4.18;;
84877;SDS011;75140;47.754;8.840;2024-01-07T03:36:15;6.57;;;4.30;;
84877;SDS011;75140;47.754;8.840;2024-01-07T03:38:41;6.68;;;4.40;;
84877;SDS011;75140;47.754;8.840;2024-01-07T03:41:06;8.88;;;4.47;;
84877;SDS011;75140;47.754;8.840;2024-01-07T03:43:32;7.95;;;4.68;;
84877;SDS011;75140;47.754;8.840;2024-01-07T03:45:58;6.82;;;4.78;;
84877;SDS011;75140;47.754;8.840;2024-01-07T03:48:24;6.50;;;4.40;;
84877;SDS011;75140;47.754;8.840;2024-01-07T03:50:51;6.95;;;5.15;;
84877;SDS011;75140;47.754;8.840;2024-01-07T03:53:16;6.72;;;4.60;;
84877;SDS011;75140;47.754;8.840;2024-01-07T03:55:42;5.43;;;4.15;;
84877;SDS011;75140;47.754;8.840;2024-01-07T03:58:07;6.13;;;4.13;;
84877;SDS011;75140;47.754;8.840;2024-01-07T04:00:33;5.68;;;4.28;;
84877;SDS011;75140;47.754;8.840;2024-01-07T04:02:59;5.85;;;4.47;;
84877;SDS011;75140;47.754;8.840;2024-01-07T04:05:25;6.13;;;4.57;;
84877;SDS011;75140;47.754;8.840;2024-01-07T04:07:50;7.97;;;4.53;;
84877;SDS011;75140;47.754;8.840;2024-01-07T04:10:16;9.10;;;6.07;;
84877;SDS011;75140;47.754;8.840;2024-01-07T04:12:42;5.63;;;4.28;;
84877;SDS011;75140;47.754;8.840;2024-01-07T04:15:07;6.00;;;4.30;;
84877;SDS011;75140;47.754;8.840;2024-01-07T04:17:33;6.78;;;4.60;;
84877;SDS011;75140;47.754;8.840;2024-01-07T04:19:59;7.97;;;4.90;;
84877;SDS011;75140;47.754;8.840;2024-01-07T04:22:24;5.50;;;4.00;;
84877;SDS011;75140;47.754;8.840;2024-01-07T04:24:49;6.37;;;4.47;;
84877;SDS011;75140;47.754;8.840;2024-01-07T04:27:15;5.17;;;3.73;;
84877;SDS011;75140;47.754;8.840;2024-01-07T04:29:40;6.50;;;4.87;;
84877;SDS011;75140;47.754;8.840;2024-01-07T04:32:05;5.67;;;4.57;;
84877;SDS011;75140;47.754;8.840;2024-01-07T04:34:31;6.30;;;4.27;;
84877;SDS011;75140;47.754;8.840;2024-01-07T04:36:56;7.03;;;4.43;;
84877;SDS011;75140;47.754;8.840;2024-01-07T04:39:22;6.63;;;4.55;;
84877;SDS011;75140;47.754;8.840;2024-01-07T04:41:47;7.33;;;4.80;;
84877;SDS011;75140;47.754;8.840;2024-01-07T04:44:12;5.57;;;4.83;;
84877;SDS011;75140;47.754;8.840;2024-01-07T04:46:38;6.77;;;5.10;;
84877;SDS011;75140;47.754;8.840;2024-01-07T04:49:04;7.40;;;4.68;;
84877;SDS011;75140;47.754;8.840;2024-01-07T04:51:30;8.27;;;5.57;;
84877;SDS011;75140;47.754;8.840;2024-01-07T04:53:56;5.70;;;4.32;;
84877;SDS011;75140;47.754;8.840;2024-01-07T04:56:21;8.98;;;4.80;;
84877;SDS011;75140;47.754;8.840;2024-01-07T04:58:47;7.57;;;5.63;;
84877;SDS011;75140;47.754;8.840;2024-01-07T05:01:12;6.03;;;4.73;;
84877;SDS011;75140;47.754;8.840;2024-01-07T05:03:37;8.53;;;5.27;;
84877;SDS011;75140;47.754;8.840;2024-01-07T05:06:03;7.30;;;5.25;;
84877;SDS011;75140;47.754;8.840;2024-01-07T05:08:29;9.02;;;5.05;;
84877;SDS011;75140;47.754;8.840;2024-01-07T05:10:54;7.53;;;4.88;;
84877;SDS011;75140;47.754;8.840;2024-01-07T05:13:20;8.10;;;5.43;;
84877;SDS011;75140;47.754;8.840;2024-01-07T05:15:45;6.23;;;5.10;;
84877;SDS011;75140;47.754;8.840;2024-01-07T05:18:11;5.72;;;4.03;;
84877;SDS011;75140;47.754;8.840;2024-01-07T05:20:37;7.68;;;5.18;;
84877;SDS011;75140;47.754;8.840;2024-01-07T05:23:03;6.78;;;4.90;;
84877;SDS011;75140;47.754;8.840;2024-01-07T05:25:28;8.73;;;5.13;;
84877;SDS011;75140;47.754;8.840;2024-01-07T05:27:54;9.13;;;5.55;;
84877;SDS011;75140;47.754;8.840;2024-01-07T05:30:19;8.10;;;5.35;;
84877;SDS011;75140;47.754;8.840;2024-01-07T05:32:45;8.60;;;5.60;;
84877;SDS011;75140;47.754;8.840;2024-01-07T05:35:10;6.90;;;4.90;;
84877;SDS011;75140;47.754;8.840;2024-01-07T05:37:36;7.50;;;5.47;;
84877;SDS011;75140;47.754;8.840;2024-01-07T05:40:01;8.20;;;5.07;;
84877;SDS011;75140;47.754;8.840;2024-01-07T05:42:26;8.95;;;6.13;;
84877;SDS011;75140;47.754;8.840;2024-01-07T05:44:52;9.57;;;6.27;;
84877;SDS011;75140;47.754;8.840;2024-01-07T05:47:17;10.63;;;6.90;;
84877;SDS011;75140;47.754;8.840;2024-01-07T05:49:43;8.90;;;5.80;;
84877;SDS011;75140;47.754;8.840;2024-01-07T05:52:08;7.78;;;5.22;;
84877;SDS011;75140;47.754;8.840;2024-01-07T05:54:33;7.53;;;5.03;;
84877;SDS011;75140;47.754;8.840;2024-01-07T05:56:59;7.33;;;4.93;;
84877;SDS011;75140;47.754;8.840;2024-01-07T05:59:24;9.07;;;5.67;;
84877;SDS011;75140;47.754;8.840;2024-01-07T06:01:50;7.20;;;4.35;;
84877;SDS011;75140;47.754;8.840;2024-01-07T06:04:15;9.73;;;6.23;;
84877;SDS011;75140;47.754;8.840;2024-01-07T06:06:40;7.30;;;4.70;;
84877;SDS011;75140;47.754;8.840;2024-01-07T06:09:06;9.13;;;5.67;;
84877;SDS011;75140;47.754;8.840;2024-01-07T06:11:31;9.18;;;5.30;;
84877;SDS011;75140;47.754;8.840;2024-01-07T06:13:57;8.43;;;5.73;;
84877;SDS011;75140;47.754;8.840;2024-01-07T06:16:22;10.63;;;5.50;;
84877;SDS011;75140;47.754;8.840;2024-01-07T06:18:48;9.45;;;6.32;;
84877;SDS011;75140;47.754;8.840;2024-01-07T06:21:13;7.03;;;4.60;;
84877;SDS011;75140;47.754;8.840;2024-01-07T06:23:39;8.60;;;5.78;;
84877;SDS011;75140;47.754;8.840;2024-01-07T06:26:04;10.17;;;5.60;;
84877;SDS011;75140;47.754;8.840;2024-01-07T06:28:30;7.50;;;5.30;;
84877;SDS011;75140;47.754;8.840;2024-01-07T06:30:55;9.25;;;6.43;;
84877;SDS011;75140;47.754;8.840;2024-01-07T06:33:21;8.17;;;5.00;;
84877;SDS011;75140;47.754;8.840;2024-01-07T06:35:46;7.93;;;6.23;;
84877;SDS011;75140;47.754;8.840;2024-01-07T06:38:11;7.63;;;4.72;;
84877;SDS011;75140;47.754;8.840;2024-01-07T06:40:37;7.97;;;5.15;;
84877;SDS011;75140;47.754;8.840;2024-01-07T06:43:02;8.47;;;5.80;;
84877;SDS011;75140;47.754;8.840;2024-01-07T06:45:27;12.15;;;6.32;;
84877;SDS011;75140;47.754;8.840;2024-01-07T06:47:53;8.17;;;5.57;;
84877;SDS011;75140;47.754;8.840;2024-01-07T06:50:19;9.48;;;6.38;;
84877;SDS011;75140;47.754;8.840;2024-01-07T06:52:45;8.25;;;5.75;;
84877;SDS011;75140;47.754;8.840;2024-01-07T06:55:11;11.15;;;6.78;;
84877;SDS011;75140;47.754;8.840;2024-01-07T06:57:36;8.57;;;5.47;;
84877;SDS011;75140;47.754;8.840;2024-01-07T07:00:02;9.70;;;6.53;;
84877;SDS011;75140;47.754;8.840;2024-01-07T07:02:28;9.85;;;6.35;;
84877;SDS011;75140;47.754;8.840;2024-01-07T07:04:53;10.07;;;5.68;;
84877;SDS011;75140;47.754;8.840;2024-01-07T07:07:19;9.60;;;6.50;;
84877;SDS011;75140;47.754;8.840;2024-01-07T07:09:44;10.63;;;6.32;;
84877;SDS011;75140;47.754;8.840;2024-01-07T07:12:11;7.50;;;5.60;;
84877;SDS011;75140;47.754;8.840;2024-01-07T07:14:37;10.40;;;5.93;;
84877;SDS011;75140;47.754;8.840;2024-01-07T07:17:02;8.80;;;5.93;;
84877;SDS011;75140;47.754;8.840;2024-01-07T07:19:28;10.93;;;6.55;;
84877;SDS011;75140;47.754;8.840;2024-01-07T07:21:53;9.70;;;5.78;;
84877;SDS011;75140;47.754;8.840;2024-01-07T07:24:19;8.50;;;6.37;;
84877;SDS011;75140;47.754;8.840;2024-01-07T07:26:44;8.47;;;5.47;;
84877;SDS011;75140;47.754;8.840;2024-01-07T07:29:09;9.30;;;7.00;;
84877;SDS011;75140;47.754;8.840;2024-01-07T07:31:35;7.82;;;6.38;;
84877;SDS011;75140;47.754;8.840;2024-01-07T07:34:04;11.68;;;6.47;;
84877;SDS011;75140;47.754;8.840;2024-01-07T07:36:34;9.52;;;5.88;;
84877;SDS011;75140;47.754;8.840;2024-01-07T07:39:02;9.23;;;5.07;;
84877;SDS011;75140;47.754;8.840;2024-01-07T07:41:30;10.05;;;6.07;;
84877;SDS011;75140;47.754;8.840;2024-01-07T07:43:55;9.93;;;6.43;;
84877;SDS011;75140;47.754;8.840;2024-01-07T07:46:24;9.90;;;6.03;;
84877;SDS011;75140;47.754;8.840;2024-01-07T07:48:49;10.32;;;6.43;;
84877;SDS011;75140;47.754;8.840;2024-01-07T07:51:14;11.73;;;7.00;;
84877;SDS011;75140;47.754;8.840;2024-01-07T07:53:40;9.77;;;6.45;;
84877;SDS011;75140;47.754;8.840;2024-01-07T07:56:05;10.10;;;6.80;;
84877;SDS011;75140;47.754;8.840;2024-01-07T07:58:31;8.35;;;5.75;;
84877;SDS011;75140;47.754;8.840;2024-01-07T08:00:57;8.23;;;5.40;;
84877;SDS011;75140;47.754;8.840;2024-01-07T08:03:23;10.13;;;6.68;;
84877;SDS011;75140;47.754;8.840;2024-01-07T08:05:51;8.98;;;5.90;;
84877;SDS011;75140;47.754;8.840;2024-01-07T08:08:16;8.30;;;5.75;;
84877;SDS011;75140;47.754;8.840;2024-01-07T08:10:47;8.68;;;5.22;;
84877;SDS011;75140;47.754;8.840;2024-01-07T08:13:12;10.93;;;6.70;;
84877;SDS011;75140;47.754;8.840;2024-01-07T08:15:41;8.23;;;5.35;;
84877;SDS011;75140;47.754;8.840;2024-01-07T08:18:07;9.90;;;6.60;;
84877;SDS011;75140;47.754;8.840;2024-01-07T08:20:32;9.40;;;6.17;;
84877;SDS011;75140;47.754;8.840;2024-01-07T08:22:57;10.45;;;6.82;;
84877;SDS011;75140;47.754;8.840;2024-01-07T08:25:23;10.03;;;6.47;;
84877;SDS011;75140;47.754;8.840;2024-01-07T08:27:48;8.85;;;6.07;;
84877;SDS011;75140;47.754;8.840;2024-01-07T08:30:14;11.00;;;6.28;;
84877;SDS011;75140;47.754;8.840;2024-01-07T08:32:40;10.38;;;6.32;;
84877;SDS011;75140;47.754;8.840;2024-01-07T08:35:05;10.35;;;6.40;;
84877;SDS011;75140;47.754;8.840;2024-01-07T08:37:31;7.95;;;6.05;;
84877;SDS011;75140;47.754;8.840;2024-01-07T08:39:56;11.07;;;6.32;;
84877;SDS011;75140;47.754;8.840;2024-01-07T08:42:22;8.93;;;6.40;;
84877;SDS011;75140;47.754;8.840;2024-01-07T08:44:48;9.95;;;6.65;;
84877;SDS011;75140;47.754;8.840;2024-01-07T08:47:14;9.20;;;5.70;;
84877;SDS011;75140;47.754;8.840;2024-01-07T08:49:39;9.63;;;6.60;;
84877;SDS011;75140;47.754;8.840;2024-01-07T08:52:05;7.40;;;5.60;;
84877;SDS011;75140;47.754;8.840;2024-01-07T08:54:30;11.17;;;5.50;;
84877;SDS011;75140;47.754;8.840;2024-01-07T08:56:56;8.07;;;5.77;;
84877;SDS011;75140;47.754;8.840;2024-01-07T08:59:21;10.13;;;6.57;;
84877;SDS011;75140;47.754;8.840;2024-01-07T09:01:46;9.43;;;6.37;;
84877;SDS011;75140;47.754;8.840;2024-01-07T09:04:12;11.03;;;7.43;;
84877;SDS011;75140;47.754;8.840;2024-01-07T09:06:37;14.20;;;7.90;;
84877;SDS011;75140;47.754;8.840;2024-01-07T09:09:03;8.77;;;6.38;;
84877;SDS011;75140;47.754;8.840;2024-01-07T09:11:31;10.25;;;6.50;;
84877;SDS011;75140;47.754;8.840;2024-01-07T09:13:57;9.73;;;6.95;;
84877;SDS011;75140;47.754;8.840;2024-01-07T09:16:22;10.33;;;6.60;;
84877;SDS011;75140;47.754;8.840;2024-01-07T09:18:47;10.60;;;5.63;;
84877;SDS011;75140;47.754;8.840;2024-01-07T09:21:13;10.30;;;7.20;;
84877;SDS011;75140;47.754;8.840;2024-01-07T09:23:39;9.68;;;6.13;;
84877;SDS011;75140;47.754;8.840;2024-01-07T09:26:04;9.97;;;7.07;;
84877;SDS011;75140;47.754;8.840;2024-01-07T09:28:29;9.95;;;6.90;;
84877;SDS011;75140;47.754;8.840;2024-01-07T09:30:55;9.37;;;6.97;;
84877;SDS011;75140;47.754;8.840;2024-01-07T09:33:20;11.40;;;7.17;;
84877;SDS011;75140;47.754;8.840;2024-01-07T09:35:48;8.07;;;6.25;;
84877;SDS011;75140;47.754;8.840;2024-01-07T09:38:14;11.27;;;6.60;;
84877;SDS011;75140;47.754;8.840;2024-01-07T09:40:40;10.13;;;6.85;;
84877;SDS011;75140;47.754;8.840;2024-01-07T09:43:05;10.02;;;6.60;;
84877;SDS011;75140;47.754;8.840;2024-01-07T09:45:31;11.68;;;6.80;;
84877;SDS011;75140;47.754;8.840;2024-01-07T09:47:56;9.80;;;6.90;;
84877;SDS011;75140;47.754;8.840;2024-01-07T09:50:22;11.27;;;6.88;;
84877;SDS011;75140;47.754;8.840;2024-01-07T09:52:47;14.57;;;9.30;;
84877;SDS011;75140;47.754;8.840;2024-01-07T09:55:16;11.05;;;6.70;;
84877;SDS011;75140;47.754;8.840;2024-01-07T09:57:50;11.07;;;7.45;;
84877;SDS011;75140;47.754;8.840;2024-01-07T10:00:15;14.65;;;8.80;;
84877;SDS011;75140;47.754;8.840;2024-01-07T10:02:41;10.90;;;6.70;;
84877;SDS011;75140;47.754;8.840;2024-01-07T10:05:07;11.10;;;6.68;;
84877;SDS011;75140;47.754;8.840;2024-01-07T10:07:32;9.35;;;6.20;;
84877;SDS011;75140;47.754;8.840;2024-01-07T10:09:58;13.00;;;7.88;;
84877;SDS011;75140;47.754;8.840;2024-01-07T10:12:24;14.73;;;9.07;;
84877;SDS011;75140;47.754;8.840;2024-01-07T10:14:49;13.75;;;9.30;;
84877;SDS011;75140;47.754;8.840;2024-01-07T10:17:15;12.17;;;7.50;;
84877;SDS011;75140;47.754;8.840;2024-01-07T10:19:44;10.32;;;7.30;;
84877;SDS011;75140;47.754;8.840;2024-01-07T10:22:11;9.50;;;6.85;;
84877;SDS011;75140;47.754;8.840;2024-01-07T10:24:40;10.40;;;7.13;;
84877;SDS011;75140;47.754;8.840;2024-01-07T10:27:08;8.68;;;6.13;;
84877;SDS011;75140;47.754;8.840;2024-01-07T10:29:34;10.32;;;7.10;;
84877;SDS011;75140;47.754;8.840;2024-01-07T10:32:00;8.68;;;6.05;;
84877;SDS011;75140;47.754;8.840;2024-01-07T10:34:35;10.57;;;6.88;;
84877;SDS011;75140;47.754;8.840;2024-01-07T10:37:01;8.23;;;6.13;;
84877;SDS011;75140;47.754;8.840;2024-01-07T10:39:28;6.88;;;4.78;;
84877;SDS011;75140;47.754;8.840;2024-01-07T10:41:54;7.60;;;5.07;;
84877;SDS011;75140;47.754;8.840;2024-01-07T10:44:30;10.18;;;6.47;;
84877;SDS011;75140;47.754;8.840;2024-01-07T10:46:56;8.88;;;5.72;;
84877;SDS011;75140;47.754;8.840;2024-01-07T10:49:24;5.60;;;4.20;;
84877;SDS011;75140;47.754;8.840;2024-01-07T10:51:56;7.20;;;5.57;;
84877;SDS011;75140;47.754;8.840;2024-01-07T10:54:24;7.57;;;4.35;;
84877;SDS011;75140;47.754;8.840;2024-01-07T10:56:53;5.55;;;3.75;;
84877;SDS011;75140;47.754;8.840;2024-01-07T10:59:23;7.25;;;5.30;;
84877;SDS011;75140;47.754;8.840;2024-01-07T11:01:49;7.75;;;5.38;;
84877;SDS011;75140;47.754;8.840;2024-01-07T11:04:17;7.00;;;5.20;;
84877;SDS011;75140;47.754;8.840;2024-01-07T11:06:59;4.95;;;4.43;;
84877;SDS011;75140;47.754;8.840;2024-01-07T11:12:00;6.90;;;4.65;;
84877;SDS011;75140;47.754;8.840;2024-01-07T11:14:36;8.32;;;5.15;;
84877;SDS011;75140;47.754;8.840;2024-01-07T11:17:04;6.97;;;4.43;;
84877;SDS011;75140;47.754;8.840;2024-01-07T11:19:30;7.00;;;6.00;;
84877;SDS011;75140;47.754;8.840;2024-01-07T11:24:56;4.72;;;3.83;;
84877;SDS011;75140;47.754;8.840;2024-01-07T11:27:23;6.35;;;5.55;;
84877;SDS011;75140;47.754;8.840;2024-01-07T11:32:23;5.03;;;3.80;;
84877;SDS011;75140;47.754;8.840;2024-01-07T11:34:53;6.95;;;4.90;;
84877;SDS011;75140;47.754;8.840;2024-01-07T11:37:19;5.00;;;4.20;;
84877;SDS011;75140;47.754;8.840;2024-01-07T11:39:46;6.47;;;4.28;;
84877;SDS011;75140;47.754;8.840;2024-01-07T11:42:12;5.55;;;4.65;;
84877;SDS011;75140;47.754;8.840;2024-01-07T11:44:44;4.75;;;4.32;;
84877;SDS011;75140;47.754;8.840;2024-01-07T11:47:12;5.63;;;4.05;;
84877;SDS011;75140;47.754;8.840;2024-01-07T11:49:37;6.05;;;4.28;;
84877;SDS011;75140;47.754;8.840;2024-01-07T11:52:04;11.00;;;5.50;;
84877;SDS011;75140;47.754;8.840;2024-01-07T11:54:30;7.10;;;4.68;;
84877;SDS011;75140;47.754;8.840;2024-01-07T11:56:56;6.72;;;4.35;;
84877;SDS011;75140;47.754;8.840;2024-01-07T11:59:22;6.20;;;4.80;;
84877;SDS011;75140;47.754;8.840;2024-01-07T12:01:48;6.00;;;4.30;;
84877;SDS011;75140;47.754;8.840;2024-01-07T12:04:13;7.13;;;4.87;;
84877;SDS011;75140;47.754;8.840;2024-01-07T12:06:38;6.40;;;5.17;;
84877;SDS011;75140;47.754;8.840;2024-01-07T12:09:04;5.88;;;4.85;;
84877;SDS011;75140;47.754;8.840;2024-01-07T12:11:29;9.43;;;7.00;;
84877;SDS011;75140;47.754;8.840;2024-01-07T12:13:55;8.32;;;6.45;;
84877;SDS011;75140;47.754;8.840;2024-01-07T12:16:22;7.63;;;4.93;;
84877;SDS011;75140;47.754;8.840;2024-01-07T12:18:47;7.53;;;5.22;;
84877;SDS011;75140;47.754;8.840;2024-01-07T12:21:14;7.35;;;4.90;;
84877;SDS011;75140;47.754;8.840;2024-01-07T12:23:47;6.35;;;5.05;;
84877;SDS011;75140;47.754;8.840;2024-01-07T12:26:15;7.43;;;5.22;;
84877;SDS011;75140;47.754;8.840;2024-01-07T12:28:40;5.97;;;4.47;;
84877;SDS011;75140;47.754;8.840;2024-01-07T12:31:06;5.40;;;4.15;;
84877;SDS011;75140;47.754;8.840;2024-01-07T12:33:32;8.32;;;4.30;;
84877;SDS011;75140;47.754;8.840;2024-01-07T12:35:58;6.13;;;4.45;;
84877;SDS011;75140;47.754;8.840;2024-01-07T12:38:24;5.22;;;3.42;;
84877;SDS011;75140;47.754;8.840;2024-01-07T12:40:50;6.57;;;4.50;;
84877;SDS011;75140;47.754;8.840;2024-01-07T12:43:19;10.43;;;4.57;;
84877;SDS011;75140;47.754;8.840;2024-01-07T12:45:45;7.80;;;5.05;;
84877;SDS011;75140;47.754;8.840;2024-01-07T12:48:11;7.72;;;4.47;;
84877;SDS011;75140;47.754;8.840;2024-01-07T12:50:37;7.63;;;4.40;;
84877;SDS011;75140;47.754;8.840;2024-01-07T12:53:02;8.53;;;5.43;;
84877;SDS011;75140;47.754;8.840;2024-01-07T12:55:28;6.57;;;3.75;;
84877;SDS011;75140;47.754;8.840;2024-01-07T12:57:54;4.03;;;3.63;;
84877;SDS011;75140;47.754;8.840;2024-01-07T13:00:20;7.35;;;4.70;;
84877;SDS011;75140;47.754;8.840;2024-01-07T13:02:45;5.03;;;3.53;;
84877;SDS011;75140;47.754;8.840;2024-01-07T13:05:11;5.35;;;4.30;;
84877;SDS011;75140;47.754;8.840;2024-01-07T13:07:37;6.05;;;3.75;;
84877;SDS011;75140;47.754;8.840;2024-01-07T13:10:03;6.57;;;4.18;;
84877;SDS011;75140;47.754;8.840;2024-01-07T13:12:29;3.75;;;2.67;;
84877;SDS011;75140;47.754;8.840;2024-01-07T13:14:54;6.18;;;3.53;;
84877;SDS011;75140;47.754;8.840;2024-01-07T13:17:19;5.50;;;3.40;;
84877;SDS011;75140;47.754;8.840;2024-01-07T13:19:45;7.40;;;3.78;;
84877;SDS011;75140;47.754;8.840;2024-01-07T13:22:10;6.07;;;4.13;;
84877;SDS011;75140;47.754;8.840;2024-01-07T13:24:36;4.22;;;3.25;;
84877;SDS011;75140;47.754;8.840;2024-01-07T13:27:02;5.85;;;3.40;;
84877;SDS011;75140;47.754;8.840;2024-01-07T13:29:27;5.32;;;4.05;;
84877;SDS011;75140;47.754;8.840;2024-01-07T13:31:53;4.95;;;3.33;;
84877;SDS011;75140;47.754;8.840;2024-01-07T13:34:18;5.03;;;3.05;;
84877;SDS011;75140;47.754;8.840;2024-01-07T13:36:44;3.03;;;2.70;;
84877;SDS011;75140;47.754;8.840;2024-01-07T13:39:09;5.05;;;3.45;;
84877;SDS011;75140;47.754;8.840;2024-01-07T13:41:35;4.80;;;3.38;;
84877;SDS011;75140;47.754;8.840;2024-01-07T13:44:01;4.28;;;3.40;;
84877;SDS011;75140;47.754;8.840;2024-01-07T13:46:30;5.10;;;3.70;;
84877;SDS011;75140;47.754;8.840;2024-01-07T13:48:55;5.50;;;3.60;;
84877;SDS011;75140;47.754;8.840;2024-01-07T13:51:20;7.10;;;3.83;;
84877;SDS011;75140;47.754;8.840;2024-01-07T13:53:46;4.20;;;3.30;;
84877;SDS011;75140;47.754;8.840;2024-01-07T13:56:11;6.37;;;3.57;;
84877;SDS011;75140;47.754;8.840;2024-01-07T13:58:38;5.40;;;3.63;;
84877;SDS011;75140;47.754;8.840;2024-01-07T14:01:03;8.20;;;4.63;;
84877;SDS011;75140;47.754;8.840;2024-01-07T14:03:30;4.53;;;3.03;;
84877;SDS011;75140;47.754;8.840;2024-01-07T14:05:57;6.03;;;3.88;;
84877;SDS011;75140;47.754;8.840;2024-01-07T14:08:23;5.03;;;3.60;;
84877;SDS011;75140;47.754;8.840;2024-01-07T14:10:48;5.10;;;3.47;;
84877;SDS011;75140;47.754;8.840;2024-01-07T14:13:13;6.07;;;3.83;;
84877;SDS011;75140;47.754;8.840;2024-01-07T14:15:39;4.55;;;2.97;;
84877;SDS011;75140;47.754;8.840;2024-01-07T14:18:04;8.25;;;4.20;;
84877;SDS011;75140;47.754;8.840;2024-01-07T14:20:30;4.97;;;3.53;;
84877;SDS011;75140;47.754;8.840;2024-01-07T14:22:55;5.15;;;3.80;;
84877;SDS011;75140;47.754;8.840;2024-01-07T14:25:21;5.87;;;3.60;;
84877;SDS011;75140;47.754;8.840;2024-01-07T14:27:46;4.87;;;2.83;;
84877;SDS011;75140;47.754;8.840;2024-01-07T14:30:12;4.43;;;3.20;;
84877;SDS011;75140;47.754;8.840;2024-01-07T14:32:38;5.85;;;3.28;;
84877;SDS011;75140;47.754;8.840;2024-01-07T14:35:04;4.63;;;3.38;;
84877;SDS011;75140;47.754;8.840;2024-01-07T14:37:30;5.25;;;4.03;;
84877;SDS011;75140;47.754;8.840;2024-01-07T14:39:55;6.18;;;3.53;;
84877;SDS011;75140;47.754;8.840;2024-01-07T14:42:21;9.23;;;5.43;;
84877;SDS011;75140;47.754;8.840;2024-01-07T14:44:46;6.57;;;4.37;;